sensor_id;sensor_type;location;lat;lon;timestamp;P1;durP1;ratioP1;P2;durP2;ratioP2
5823;SDS011;2938;52.254;12.988;2022-11-15T00:00:24;72.82;;;42.13;;
5823;SDS011;2938;52.254;12.988;2022-11-15T00:02:52;72.68;;;44.17;;
5823;SDS011;2938;52.254;12.988;2022-11-15T00:05:17;72.72;;;46.03;;
5823;SDS011;2938;52.254;12.988;2022-11-15T00:07:43;94.57;;;50.65;;
5823;SDS011;2938;52.254;12.988;2022-11-15T00:10:08;79.18;;;47.17;;
5823;SDS011;2938;52.254;12.988;2022-11-15T00:12:34;73.35;;;43.80;;
5823;SDS011;2938;52.254;12.988;2022-11-15T00:14:59;67.75;;;45.00;;
5823;SDS011;2938;52.254;12.988;2022-11-15T00:17:24;77.90;;;45.13;;
5823;SDS011;2938;52.254;12.988;2022-11-15T00:19:50;72.80;;;42.53;;
5823;SDS011;2938;52.254;12.988;2022-11-15T00:22:15;79.90;;;46.72;;
5823;SDS011;2938;52.254;12.988;2022-11-15T00:24:40;73.55;;;42.30;;
5823;SDS011;2938;52.254;12.988;2022-11-15T00:27:06;77.50;;;44.80;;
5823;SDS011;2938;52.254;12.988;2022-11-15T00:29:31;77.90;;;45.35;;
5823;SDS011;2938;52.254;12.988;2022-11-15T00:31:56;90.38;;;49.25;;
5823;SDS011;2938;52.254;12.988;2022-11-15T00:34:22;86.38;;;46.88;;
5823;SDS011;2938;52.254;12.988;2022-11-15T00:36:47;81.88;;;47.45;;
5823;SDS011;2938;52.254;12.988;2022-11-15T00:39:12;86.97;;;49.55;;
5823;SDS011;2938;52.254;12.988;2022-11-15T00:41:37;82.45;;;48.83;;
5823;SDS011;2938;52.254;12.988;2022-11-15T00:44:03;87.78;;;48.50;;
5823;SDS011;2938;52.254;12.988;2022-11-15T00:46:28;81.90;;;49.08;;
5823;SDS011;2938;52.254;12.988;2022-11-15T00:48:54;82.95;;;45.67;;
5823;SDS011;2938;52.254;12.988;2022-11-15T00:51:19;86.40;;;50.70;;
5823;SDS011;2938;52.254;12.988;2022-11-15T00:53:45;88.65;;;48.28;;
5823;SDS011;2938;52.254;12.988;2022-11-15T00:56:13;91.03;;;47.78;;
5823;SDS011;2938;52.254;12.988;2022-11-15T00:58:38;78.82;;;47.97;;
5823;SDS011;2938;52.254;12.988;2022-11-15T01:01:07;87.13;;;49.00;;
5823;SDS011;2938;52.254;12.988;2022-11-15T01:03:37;85.60;;;46.97;;
5823;SDS011;2938;52.254;12.988;2022-11-15T01:06:03;86.90;;;49.40;;
5823;SDS011;2938;52.254;12.988;2022-11-15T01:08:29;85.65;;;49.33;;
5823;SDS011;2938;52.254;12.988;2022-11-15T01:10:54;81.25;;;47.17;;
5823;SDS011;2938;52.254;12.988;2022-11-15T01:13:25;83.10;;;47.50;;
5823;SDS011;2938;52.254;12.988;2022-11-15T01:15:56;85.13;;;46.78;;
5823;SDS011;2938;52.254;12.988;2022-11-15T01:18:21;88.82;;;50.97;;
5823;SDS011;2938;52.254;12.988;2022-11-15T01:20:46;82.93;;;47.47;;
5823;SDS011;2938;52.254;12.988;2022-11-15T01:23:12;79.55;;;47.88;;
5823;SDS011;2938;52.254;12.988;2022-11-15T01:25:37;84.10;;;45.20;;
5823;SDS011;2938;52.254;12.988;2022-11-15T01:28:02;84.32;;;48.10;;
5823;SDS011;2938;52.254;12.988;2022-11-15T01:30:28;80.70;;;47.67;;
5823;SDS011;2938;52.254;12.988;2022-11-15T01:32:53;80.63;;;45.60;;
5823;SDS011;2938;52.254;12.988;2022-11-15T01:35:20;83.55;;;47.33;;
5823;SDS011;2938;52.254;12.988;2022-11-15T01:37:45;85.22;;;48.78;;
5823;SDS011;2938;52.254;12.988;2022-11-15T01:40:11;92.43;;;53.35;;
5823;SDS011;2938;52.254;12.988;2022-11-15T01:42:36;89.40;;;49.83;;
5823;SDS011;2938;52.254;12.988;2022-11-15T01:45:01;78.93;;;48.38;;
5823;SDS011;2938;52.254;12.988;2022-11-15T01:47:31;92.28;;;49.28;;
5823;SDS011;2938;52.254;12.988;2022-11-15T01:49:59;85.72;;;49.08;;
5823;SDS011;2938;52.254;12.988;2022-11-15T01:52:29;89.18;;;51.50;;
5823;SDS011;2938;52.254;12.988;2022-11-15T01:54:57;88.53;;;50.05;;
5823;SDS011;2938;52.254;12.988;2022-11-15T01:57:32;90.70;;;52.17;;
5823;SDS011;2938;52.254;12.988;2022-11-15T01:59:58;82.93;;;48.22;;
5823;SDS011;2938;52.254;12.988;2022-11-15T02:02:25;88.63;;;50.60;;
5823;SDS011;2938;52.254;12.988;2022-11-15T02:04:50;82.78;;;47.22;;
5823;SDS011;2938;52.254;12.988;2022-11-15T02:07:17;88.80;;;50.65;;
5823;SDS011;2938;52.254;12.988;2022-11-15T02:09:43;82.78;;;46.83;;
5823;SDS011;2938;52.254;12.988;2022-11-15T02:12:09;75.85;;;44.50;;
5823;SDS011;2938;52.254;12.988;2022-11-15T02:14:36;89.53;;;50.83;;
5823;SDS011;2938;52.254;12.988;2022-11-15T02:25:31;81.95;;;44.50;;
5823;SDS011;2938;52.254;12.988;2022-11-15T02:30:42;84.03;;;47.38;;
5823;SDS011;2938;52.254;12.988;2022-11-15T02:33:22;75.00;;;43.40;;
5823;SDS011;2938;52.254;12.988;2022-11-15T02:35:55;78.32;;;44.70;;
5823;SDS011;2938;52.254;12.988;2022-11-15T02:38:29;73.80;;;43.58;;
5823;SDS011;2938;52.254;12.988;2022-11-15T02:41:04;74.57;;;42.05;;
5823;SDS011;2938;52.254;12.988;2022-11-15T02:43:40;74.75;;;41.50;;
5823;SDS011;2938;52.254;12.988;2022-11-15T02:46:35;73.10;;;43.53;;
5823;SDS011;2938;52.254;12.988;2022-11-15T02:49:45;66.13;;;38.53;;
5823;SDS011;2938;52.254;12.988;2022-11-15T02:52:16;62.95;;;37.40;;
5823;SDS011;2938;52.254;12.988;2022-11-15T02:54:57;67.63;;;39.55;;
5823;SDS011;2938;52.254;12.988;2022-11-15T03:08:24;67.55;;;38.75;;
5823;SDS011;2938;52.254;12.988;2022-11-15T03:13:44;68.07;;;40.20;;
5823;SDS011;2938;52.254;12.988;2022-11-15T03:16:16;67.68;;;38.83;;
5823;SDS011;2938;52.254;12.988;2022-11-15T03:18:47;70.85;;;40.63;;
5823;SDS011;2938;52.254;12.988;2022-11-15T03:21:15;72.72;;;40.40;;
5823;SDS011;2938;52.254;12.988;2022-11-15T03:23:41;69.35;;;39.80;;
5823;SDS011;2938;52.254;12.988;2022-11-15T03:26:09;63.65;;;37.47;;
5823;SDS011;2938;52.254;12.988;2022-11-15T03:28:38;68.45;;;37.03;;
5823;SDS011;2938;52.254;12.988;2022-11-15T03:31:06;65.45;;;38.03;;
5823;SDS011;2938;52.254;12.988;2022-11-15T03:33:53;72.03;;;41.05;;
5823;SDS011;2938;52.254;12.988;2022-11-15T03:36:20;68.40;;;39.22;;
5823;SDS011;2938;52.254;12.988;2022-11-15T03:38:47;59.83;;;38.95;;
5823;SDS011;2938;52.254;12.988;2022-11-15T03:41:17;59.85;;;38.45;;
5823;SDS011;2938;52.254;12.988;2022-11-15T03:46:40;58.70;;;36.42;;
5823;SDS011;2938;52.254;12.988;2022-11-15T03:49:14;59.60;;;33.17;;
5823;SDS011;2938;52.254;12.988;2022-11-15T03:51:45;61.78;;;36.28;;
5823;SDS011;2938;52.254;12.988;2022-11-15T03:54:12;65.05;;;37.25;;
5823;SDS011;2938;52.254;12.988;2022-11-15T03:56:37;61.45;;;33.10;;
5823;SDS011;2938;52.254;12.988;2022-11-15T03:59:03;66.05;;;36.20;;
5823;SDS011;2938;52.254;12.988;2022-11-15T04:01:28;63.78;;;34.10;;
5823;SDS011;2938;52.254;12.988;2022-11-15T04:03:53;52.72;;;30.83;;
5823;SDS011;2938;52.254;12.988;2022-11-15T04:06:19;55.80;;;31.25;;
5823;SDS011;2938;52.254;12.988;2022-11-15T04:08:44;54.47;;;32.22;;
5823;SDS011;2938;52.254;12.988;2022-11-15T04:11:09;52.72;;;32.13;;
5823;SDS011;2938;52.254;12.988;2022-11-15T04:13:34;52.97;;;32.03;;
5823;SDS011;2938;52.254;12.988;2022-11-15T04:16:00;56.38;;;31.25;;
5823;SDS011;2938;52.254;12.988;2022-11-15T04:18:25;57.78;;;35.83;;
5823;SDS011;2938;52.254;12.988;2022-11-15T04:20:50;55.50;;;32.72;;
5823;SDS011;2938;52.254;12.988;2022-11-15T04:23:34;60.38;;;33.50;;
5823;SDS011;2938;52.254;12.988;2022-11-15T04:26:19;59.30;;;33.25;;
5823;SDS011;2938;52.254;12.988;2022-11-15T04:28:46;55.72;;;32.95;;
5823;SDS011;2938;52.254;12.988;2022-11-15T04:31:30;48.72;;;29.48;;
5823;SDS011;2938;52.254;12.988;2022-11-15T04:33:55;50.35;;;31.92;;
5823;SDS011;2938;52.254;12.988;2022-11-15T04:36:21;60.25;;;33.97;;
5823;SDS011;2938;52.254;12.988;2022-11-15T04:39:05;54.10;;;30.23;;
5823;SDS011;2938;52.254;12.988;2022-11-15T04:41:31;58.88;;;33.13;;
5823;SDS011;2938;52.254;12.988;2022-11-15T04:43:56;53.75;;;33.75;;
5823;SDS011;2938;52.254;12.988;2022-11-15T04:46:22;54.50;;;30.80;;
5823;SDS011;2938;52.254;12.988;2022-11-15T04:48:48;64.32;;;35.35;;
5823;SDS011;2938;52.254;12.988;2022-11-15T04:51:14;58.75;;;29.38;;
5823;SDS011;2938;52.254;12.988;2022-11-15T04:53:39;49.10;;;29.00;;
5823;SDS011;2938;52.254;12.988;2022-11-15T04:56:05;58.60;;;31.25;;
5823;SDS011;2938;52.254;12.988;2022-11-15T04:58:30;58.53;;;30.85;;
5823;SDS011;2938;52.254;12.988;2022-11-15T05:00:55;50.13;;;28.73;;
5823;SDS011;2938;52.254;12.988;2022-11-15T05:03:21;55.20;;;31.23;;
5823;SDS011;2938;52.254;12.988;2022-11-15T05:06:06;52.83;;;31.27;;
5823;SDS011;2938;52.254;12.988;2022-11-15T05:08:32;55.42;;;32.38;;
5823;SDS011;2938;52.254;12.988;2022-11-15T05:10:57;54.55;;;31.60;;
5823;SDS011;2938;52.254;12.988;2022-11-15T05:13:22;63.85;;;32.53;;
5823;SDS011;2938;52.254;12.988;2022-11-15T05:15:48;47.45;;;29.17;;
5823;SDS011;2938;52.254;12.988;2022-11-15T05:18:13;55.92;;;32.03;;
5823;SDS011;2938;52.254;12.988;2022-11-15T05:20:38;49.92;;;29.23;;
5823;SDS011;2938;52.254;12.988;2022-11-15T05:23:04;60.63;;;31.80;;
5823;SDS011;2938;52.254;12.988;2022-11-15T05:25:30;56.30;;;30.95;;
5823;SDS011;2938;52.254;12.988;2022-11-15T05:27:55;56.58;;;32.80;;
5823;SDS011;2938;52.254;12.988;2022-11-15T05:30:20;58.67;;;33.17;;
5823;SDS011;2938;52.254;12.988;2022-11-15T05:32:46;53.20;;;33.28;;
5823;SDS011;2938;52.254;12.988;2022-11-15T05:35:13;66.82;;;36.70;;
5823;SDS011;2938;52.254;12.988;2022-11-15T05:37:45;64.57;;;33.30;;
5823;SDS011;2938;52.254;12.988;2022-11-15T05:40:10;52.75;;;30.30;;
5823;SDS011;2938;52.254;12.988;2022-11-15T05:42:37;50.40;;;29.48;;
5823;SDS011;2938;52.254;12.988;2022-11-15T05:45:05;51.80;;;28.75;;
5823;SDS011;2938;52.254;12.988;2022-11-15T05:47:31;54.33;;;32.13;;
5823;SDS011;2938;52.254;12.988;2022-11-15T05:49:59;51.08;;;30.85;;
5823;SDS011;2938;52.254;12.988;2022-11-15T05:52:25;57.60;;;30.80;;
5823;SDS011;2938;52.254;12.988;2022-11-15T05:54:57;51.97;;;32.28;;
5823;SDS011;2938;52.254;12.988;2022-11-15T05:57:23;55.50;;;33.53;;
5823;SDS011;2938;52.254;12.988;2022-11-15T05:59:49;51.97;;;31.60;;
5823;SDS011;2938;52.254;12.988;2022-11-15T06:02:14;42.75;;;30.00;;
5823;SDS011;2938;52.254;12.988;2022-11-15T06:04:39;47.03;;;26.70;;
5823;SDS011;2938;52.254;12.988;2022-11-15T06:07:05;47.67;;;28.88;;
5823;SDS011;2938;52.254;12.988;2022-11-15T06:09:30;57.63;;;29.95;;
5823;SDS011;2938;52.254;12.988;2022-11-15T06:11:55;54.53;;;29.30;;
5823;SDS011;2938;52.254;12.988;2022-11-15T06:14:21;53.90;;;32.30;;
5823;SDS011;2938;52.254;12.988;2022-11-15T06:16:46;49.80;;;30.92;;
5823;SDS011;2938;52.254;12.988;2022-11-15T06:19:12;56.33;;;30.90;;
5823;SDS011;2938;52.254;12.988;2022-11-15T06:21:37;52.25;;;31.42;;
5823;SDS011;2938;52.254;12.988;2022-11-15T06:24:02;57.20;;;33.05;;
5823;SDS011;2938;52.254;12.988;2022-11-15T06:26:28;66.82;;;36.33;;
5823;SDS011;2938;52.254;12.988;2022-11-15T06:28:53;58.67;;;31.67;;
5823;SDS011;2938;52.254;12.988;2022-11-15T06:31:19;58.72;;;33.83;;
5823;SDS011;2938;52.254;12.988;2022-11-15T06:33:44;57.85;;;31.73;;
5823;SDS011;2938;52.254;12.988;2022-11-15T06:36:10;51.85;;;31.85;;
5823;SDS011;2938;52.254;12.988;2022-11-15T06:38:41;54.45;;;31.80;;
5823;SDS011;2938;52.254;12.988;2022-11-15T06:41:07;54.95;;;32.30;;
5823;SDS011;2938;52.254;12.988;2022-11-15T06:43:37;54.97;;;34.20;;
5823;SDS011;2938;52.254;12.988;2022-11-15T06:46:03;59.70;;;33.92;;
5823;SDS011;2938;52.254;12.988;2022-11-15T06:48:32;62.40;;;34.72;;
5823;SDS011;2938;52.254;12.988;2022-11-15T06:50:59;62.67;;;35.55;;
5823;SDS011;2938;52.254;12.988;2022-11-15T06:53:29;69.38;;;39.35;;
5823;SDS011;2938;52.254;12.988;2022-11-15T06:55:58;57.63;;;34.83;;
5823;SDS011;2938;52.254;12.988;2022-11-15T06:58:28;61.55;;;31.45;;
5823;SDS011;2938;52.254;12.988;2022-11-15T07:00:57;62.97;;;36.03;;
5823;SDS011;2938;52.254;12.988;2022-11-15T07:03:26;66.47;;;36.42;;
5823;SDS011;2938;52.254;12.988;2022-11-15T07:06:00;60.25;;;34.75;;
5823;SDS011;2938;52.254;12.988;2022-11-15T07:08:28;58.75;;;36.28;;
5823;SDS011;2938;52.254;12.988;2022-11-15T07:10:58;72.10;;;39.90;;
5823;SDS011;2938;52.254;12.988;2022-11-15T07:13:25;68.60;;;38.35;;
5823;SDS011;2938;52.254;12.988;2022-11-15T07:15:52;56.15;;;34.92;;
5823;SDS011;2938;52.254;12.988;2022-11-15T07:18:18;56.45;;;33.65;;
5823;SDS011;2938;52.254;12.988;2022-11-15T07:20:43;51.45;;;31.50;;
5823;SDS011;2938;52.254;12.988;2022-11-15T07:23:09;69.05;;;35.05;;
5823;SDS011;2938;52.254;12.988;2022-11-15T07:25:34;58.22;;;33.95;;
5823;SDS011;2938;52.254;12.988;2022-11-15T07:28:08;62.25;;;36.50;;
5823;SDS011;2938;52.254;12.988;2022-11-15T07:30:34;64.63;;;35.22;;
5823;SDS011;2938;52.254;12.988;2022-11-15T07:32:59;52.92;;;33.00;;
5823;SDS011;2938;52.254;12.988;2022-11-15T07:35:26;52.90;;;31.95;;
5823;SDS011;2938;52.254;12.988;2022-11-15T07:37:55;56.05;;;31.60;;
5823;SDS011;2938;52.254;12.988;2022-11-15T07:40:27;46.50;;;30.25;;
5823;SDS011;2938;52.254;12.988;2022-11-15T07:43:06;48.45;;;31.15;;
5823;SDS011;2938;52.254;12.988;2022-11-15T07:45:32;42.22;;;28.15;;
5823;SDS011;2938;52.254;12.988;2022-11-15T07:48:16;51.88;;;29.90;;
5823;SDS011;2938;52.254;12.988;2022-11-15T07:50:41;41.42;;;28.60;;
5823;SDS011;2938;52.254;12.988;2022-11-15T07:53:08;48.30;;;30.88;;
5823;SDS011;2938;52.254;12.988;2022-11-15T07:55:34;43.97;;;25.80;;
5823;SDS011;2938;52.254;12.988;2022-11-15T07:58:03;37.90;;;25.70;;
5823;SDS011;2938;52.254;12.988;2022-11-15T08:00:30;37.28;;;24.08;;
5823;SDS011;2938;52.254;12.988;2022-11-15T08:03:06;36.15;;;22.33;;
5823;SDS011;2938;52.254;12.988;2022-11-15T08:05:36;34.95;;;25.23;;
5823;SDS011;2938;52.254;12.988;2022-11-15T08:08:02;38.13;;;25.77;;
5823;SDS011;2938;52.254;12.988;2022-11-15T08:10:28;43.42;;;30.33;;
5823;SDS011;2938;52.254;12.988;2022-11-15T08:12:59;44.45;;;30.58;;
5823;SDS011;2938;52.254;12.988;2022-11-15T08:15:34;39.05;;;26.92;;
5823;SDS011;2938;52.254;12.988;2022-11-15T08:18:03;30.65;;;22.08;;
5823;SDS011;2938;52.254;12.988;2022-11-15T08:20:30;41.13;;;26.70;;
5823;SDS011;2938;52.254;12.988;2022-11-15T08:22:59;41.63;;;28.50;;
5823;SDS011;2938;52.254;12.988;2022-11-15T08:25:26;33.28;;;25.45;;
5823;SDS011;2938;52.254;12.988;2022-11-15T08:27:53;33.85;;;24.13;;
5823;SDS011;2938;52.254;12.988;2022-11-15T08:30:20;34.00;;;25.60;;
5823;SDS011;2938;52.254;12.988;2022-11-15T08:32:46;31.20;;;22.48;;
5823;SDS011;2938;52.254;12.988;2022-11-15T08:35:15;47.35;;;28.35;;
5823;SDS011;2938;52.254;12.988;2022-11-15T08:37:41;28.40;;;21.10;;
5823;SDS011;2938;52.254;12.988;2022-11-15T08:40:07;30.52;;;21.95;;
5823;SDS011;2938;52.254;12.988;2022-11-15T08:42:32;27.60;;;20.00;;
5823;SDS011;2938;52.254;12.988;2022-11-15T08:44:58;26.48;;;19.55;;
5823;SDS011;2938;52.254;12.988;2022-11-15T08:47:23;32.20;;;20.55;;
5823;SDS011;2938;52.254;12.988;2022-11-15T08:49:49;24.25;;;19.88;;
5823;SDS011;2938;52.254;12.988;2022-11-15T08:52:14;25.15;;;20.23;;
5823;SDS011;2938;52.254;12.988;2022-11-15T08:54:40;28.77;;;20.83;;
5823;SDS011;2938;52.254;12.988;2022-11-15T08:57:08;25.20;;;19.23;;
5823;SDS011;2938;52.254;12.988;2022-11-15T08:59:34;24.77;;;19.05;;
5823;SDS011;2938;52.254;12.988;2022-11-15T09:02:03;30.20;;;21.55;;
5823;SDS011;2938;52.254;12.988;2022-11-15T09:04:29;24.88;;;19.40;;
5823;SDS011;2938;52.254;12.988;2022-11-15T09:06:54;33.75;;;24.80;;
5823;SDS011;2938;52.254;12.988;2022-11-15T09:09:26;32.30;;;22.00;;
5823;SDS011;2938;52.254;12.988;2022-11-15T09:11:52;24.40;;;19.30;;
5823;SDS011;2938;52.254;12.988;2022-11-15T09:14:17;24.63;;;18.95;;
5823;SDS011;2938;52.254;12.988;2022-11-15T09:16:42;32.55;;;21.15;;
5823;SDS011;2938;52.254;12.988;2022-11-15T09:19:08;30.00;;;19.13;;
5823;SDS011;2938;52.254;12.988;2022-11-15T09:21:33;24.27;;;17.65;;
5823;SDS011;2938;52.254;12.988;2022-11-15T09:24:01;25.25;;;17.38;;
5823;SDS011;2938;52.254;12.988;2022-11-15T09:26:32;23.02;;;18.17;;
5823;SDS011;2938;52.254;12.988;2022-11-15T09:28:57;28.40;;;17.55;;
5823;SDS011;2938;52.254;12.988;2022-11-15T09:31:22;25.90;;;17.73;;
5823;SDS011;2938;52.254;12.988;2022-11-15T09:33:48;29.60;;;19.48;;
5823;SDS011;2938;52.254;12.988;2022-11-15T09:36:13;22.98;;;17.40;;
5823;SDS011;2938;52.254;12.988;2022-11-15T09:38:39;23.35;;;18.55;;
5823;SDS011;2938;52.254;12.988;2022-11-15T09:43:52;25.35;;;18.98;;
5823;SDS011;2938;52.254;12.988;2022-11-15T09:46:35;27.55;;;20.30;;
5823;SDS011;2938;52.254;12.988;2022-11-15T09:49:06;22.38;;;17.35;;
5823;SDS011;2938;52.254;12.988;2022-11-15T09:51:34;31.45;;;17.00;;
5823;SDS011;2938;52.254;12.988;2022-11-15T09:54:04;22.73;;;16.30;;
5823;SDS011;2938;52.254;12.988;2022-11-15T09:56:41;23.67;;;16.23;;
5823;SDS011;2938;52.254;12.988;2022-11-15T09:59:19;21.67;;;18.35;;
5823;SDS011;2938;52.254;12.988;2022-11-15T10:01:56;20.00;;;15.10;;
5823;SDS011;2938;52.254;12.988;2022-11-15T10:04:29;21.10;;;16.63;;
5823;SDS011;2938;52.254;12.988;2022-11-15T10:07:06;28.95;;;17.55;;
5823;SDS011;2938;52.254;12.988;2022-11-15T10:09:45;23.88;;;16.23;;
5823;SDS011;2938;52.254;12.988;2022-11-15T10:12:14;24.95;;;15.52;;
5823;SDS011;2938;52.254;12.988;2022-11-15T10:14:41;28.35;;;19.70;;
5823;SDS011;2938;52.254;12.988;2022-11-15T10:19:40;20.05;;;15.40;;
5823;SDS011;2938;52.254;12.988;2022-11-15T10:22:24;18.27;;;14.23;;
5823;SDS011;2938;52.254;12.988;2022-11-15T10:24:52;17.13;;;13.68;;
5823;SDS011;2938;52.254;12.988;2022-11-15T10:27:25;19.52;;;15.57;;
5823;SDS011;2938;52.254;12.988;2022-11-15T10:29:50;18.30;;;14.25;;
5823;SDS011;2938;52.254;12.988;2022-11-15T10:32:17;18.40;;;11.75;;
5823;SDS011;2938;52.254;12.988;2022-11-15T10:34:44;17.38;;;12.65;;
5823;SDS011;2938;52.254;12.988;2022-11-15T10:37:12;19.00;;;12.43;;
5823;SDS011;2938;52.254;12.988;2022-11-15T10:39:38;19.02;;;12.93;;
5823;SDS011;2938;52.254;12.988;2022-11-15T10:42:16;22.00;;;13.93;;
5823;SDS011;2938;52.254;12.988;2022-11-15T10:44:46;16.85;;;12.35;;
5823;SDS011;2938;52.254;12.988;2022-11-15T10:49:53;17.55;;;13.38;;
5823;SDS011;2938;52.254;12.988;2022-11-15T10:52:20;18.52;;;13.15;;
5823;SDS011;2938;52.254;12.988;2022-11-15T10:54:51;18.05;;;12.00;;
5823;SDS011;2938;52.254;12.988;2022-11-15T10:57:40;15.25;;;11.38;;
5823;SDS011;2938;52.254;12.988;2022-11-15T11:02:57;18.20;;;12.23;;
5823;SDS011;2938;52.254;12.988;2022-11-15T11:05:31;15.93;;;12.82;;
5823;SDS011;2938;52.254;12.988;2022-11-15T11:10:39;16.27;;;10.73;;
5823;SDS011;2938;52.254;12.988;2022-11-15T11:13:24;18.15;;;11.80;;
5823;SDS011;2938;52.254;12.988;2022-11-15T11:16:09;11.48;;;9.48;;
5823;SDS011;2938;52.254;12.988;2022-11-15T11:18:44;18.63;;;10.43;;
5823;SDS011;2938;52.254;12.988;2022-11-15T11:21:15;17.65;;;11.40;;
5823;SDS011;2938;52.254;12.988;2022-11-15T11:23:51;18.73;;;11.48;;
5823;SDS011;2938;52.254;12.988;2022-11-15T11:26:29;14.25;;;11.35;;
5823;SDS011;2938;52.254;12.988;2022-11-15T11:35:03;17.08;;;12.43;;
5823;SDS011;2938;52.254;12.988;2022-11-15T11:37:37;13.80;;;10.98;;
5823;SDS011;2938;52.254;12.988;2022-11-15T11:43:30;18.17;;;10.30;;
5823;SDS011;2938;52.254;12.988;2022-11-15T11:48:52;18.73;;;11.20;;
5823;SDS011;2938;52.254;12.988;2022-11-15T11:53:54;17.55;;;11.35;;
5823;SDS011;2938;52.254;12.988;2022-11-15T11:56:35;14.50;;;11.48;;
5823;SDS011;2938;52.254;12.988;2022-11-15T11:59:05;17.23;;;11.85;;
5823;SDS011;2938;52.254;12.988;2022-11-15T12:01:42;15.15;;;12.32;;
5823;SDS011;2938;52.254;12.988;2022-11-15T12:04:14;14.10;;;11.90;;
5823;SDS011;2938;52.254;12.988;2022-11-15T12:09:32;16.73;;;12.10;;
5823;SDS011;2938;52.254;12.988;2022-11-15T12:12:04;16.88;;;12.13;;
5823;SDS011;2938;52.254;12.988;2022-11-15T12:14:43;22.23;;;12.82;;
5823;SDS011;2938;52.254;12.988;2022-11-15T12:17:11;19.95;;;14.35;;
5823;SDS011;2938;52.254;12.988;2022-11-15T12:19:37;21.02;;;14.48;;
5823;SDS011;2938;52.254;12.988;2022-11-15T12:22:09;15.88;;;10.80;;
5823;SDS011;2938;52.254;12.988;2022-11-15T12:24:48;17.52;;;12.02;;
5823;SDS011;2938;52.254;12.988;2022-11-15T12:27:40;16.08;;;12.55;;
5823;SDS011;2938;52.254;12.988;2022-11-15T12:30:15;17.35;;;12.55;;
5823;SDS011;2938;52.254;12.988;2022-11-15T12:35:34;16.15;;;12.25;;
5823;SDS011;2938;52.254;12.988;2022-11-15T12:38:00;19.83;;;12.70;;
5823;SDS011;2938;52.254;12.988;2022-11-15T12:40:27;12.52;;;10.98;;
5823;SDS011;2938;52.254;12.988;2022-11-15T12:43:03;19.92;;;11.88;;
5823;SDS011;2938;52.254;12.988;2022-11-15T12:45:33;15.38;;;10.82;;
5823;SDS011;2938;52.254;12.988;2022-11-15T12:50:54;18.13;;;11.55;;
5823;SDS011;2938;52.254;12.988;2022-11-15T13:01:14;21.50;;;11.07;;
5823;SDS011;2938;52.254;12.988;2022-11-15T13:06:59;16.92;;;10.48;;
5823;SDS011;2938;52.254;12.988;2022-11-15T13:11:55;16.70;;;11.25;;
5823;SDS011;2938;52.254;12.988;2022-11-15T13:17:02;15.85;;;10.55;;
5823;SDS011;2938;52.254;12.988;2022-11-15T13:19:28;20.90;;;11.80;;
5823;SDS011;2938;52.254;12.988;2022-11-15T13:21:53;16.63;;;9.57;;
5823;SDS011;2938;52.254;12.988;2022-11-15T13:24:38;22.45;;;11.88;;
5823;SDS011;2938;52.254;12.988;2022-11-15T13:27:14;13.90;;;10.65;;
5823;SDS011;2938;52.254;12.988;2022-11-15T13:29:43;22.90;;;11.10;;
5823;SDS011;2938;52.254;12.988;2022-11-15T13:32:13;23.10;;;10.60;;
5823;SDS011;2938;52.254;12.988;2022-11-15T13:34:39;15.27;;;11.02;;
5823;SDS011;2938;52.254;12.988;2022-11-15T13:37:13;19.73;;;11.23;;
5823;SDS011;2938;52.254;12.988;2022-11-15T13:39:53;15.30;;;10.68;;
5823;SDS011;2938;52.254;12.988;2022-11-15T13:42:19;16.40;;;9.80;;
5823;SDS011;2938;52.254;12.988;2022-11-15T13:45:02;15.40;;;11.15;;
5823;SDS011;2938;52.254;12.988;2022-11-15T13:47:29;13.75;;;9.73;;
5823;SDS011;2938;52.254;12.988;2022-11-15T13:49:58;16.50;;;10.57;;
5823;SDS011;2938;52.254;12.988;2022-11-15T13:52:25;18.25;;;11.07;;
5823;SDS011;2938;52.254;12.988;2022-11-15T13:54:58;15.40;;;10.35;;
5823;SDS011;2938;52.254;12.988;2022-11-15T13:57:27;15.80;;;11.02;;
5823;SDS011;2938;52.254;12.988;2022-11-15T13:59:55;13.80;;;9.98;;
5823;SDS011;2938;52.254;12.988;2022-11-15T14:02:32;15.48;;;9.85;;
5823;SDS011;2938;52.254;12.988;2022-11-15T14:07:36;16.05;;;10.95;;
5823;SDS011;2938;52.254;12.988;2022-11-15T14:12:57;16.15;;;11.18;;
5823;SDS011;2938;52.254;12.988;2022-11-15T14:17:56;11.73;;;9.40;;
5823;SDS011;2938;52.254;12.988;2022-11-15T14:20:35;16.13;;;9.68;;
5823;SDS011;2938;52.254;12.988;2022-11-15T14:23:03;13.20;;;10.05;;
5823;SDS011;2938;52.254;12.988;2022-11-15T14:25:31;11.38;;;9.32;;
5823;SDS011;2938;52.254;12.988;2022-11-15T14:28:11;12.02;;;9.60;;
5823;SDS011;2938;52.254;12.988;2022-11-15T14:30:37;16.92;;;10.48;;
5823;SDS011;2938;52.254;12.988;2022-11-15T14:35:49;13.43;;;10.15;;
5823;SDS011;2938;52.254;12.988;2022-11-15T14:38:15;20.42;;;10.80;;
5823;SDS011;2938;52.254;12.988;2022-11-15T14:40:41;17.20;;;10.93;;
5823;SDS011;2938;52.254;12.988;2022-11-15T14:43:08;17.35;;;10.18;;
5823;SDS011;2938;52.254;12.988;2022-11-15T14:45:35;14.02;;;8.88;;
5823;SDS011;2938;52.254;12.988;2022-11-15T14:48:00;16.33;;;9.63;;
5823;SDS011;2938;52.254;12.988;2022-11-15T14:50:25;15.20;;;10.60;;
5823;SDS011;2938;52.254;12.988;2022-11-15T14:52:52;18.90;;;11.35;;
5823;SDS011;2938;52.254;12.988;2022-11-15T14:55:19;15.15;;;9.57;;
5823;SDS011;2938;52.254;12.988;2022-11-15T14:57:53;20.30;;;11.88;;
5823;SDS011;2938;52.254;12.988;2022-11-15T15:00:19;13.40;;;10.27;;
5823;SDS011;2938;52.254;12.988;2022-11-15T15:02:45;13.95;;;9.43;;
5823;SDS011;2938;52.254;12.988;2022-11-15T15:05:15;11.27;;;9.13;;
5823;SDS011;2938;52.254;12.988;2022-11-15T15:07:42;14.37;;;9.13;;
5823;SDS011;2938;52.254;12.988;2022-11-15T15:10:08;11.95;;;9.45;;
5823;SDS011;2938;52.254;12.988;2022-11-15T15:12:33;13.80;;;9.80;;
5823;SDS011;2938;52.254;12.988;2022-11-15T15:14:59;12.77;;;9.63;;
5823;SDS011;2938;52.254;12.988;2022-11-15T15:17:24;14.13;;;9.80;;
5823;SDS011;2938;52.254;12.988;2022-11-15T15:19:49;15.30;;;10.02;;
5823;SDS011;2938;52.254;12.988;2022-11-15T15:22:15;15.05;;;9.80;;
5823;SDS011;2938;52.254;12.988;2022-11-15T15:24:42;16.15;;;10.38;;
5823;SDS011;2938;52.254;12.988;2022-11-15T15:27:08;16.17;;;10.38;;
5823;SDS011;2938;52.254;12.988;2022-11-15T15:29:34;12.82;;;9.15;;
5823;SDS011;2938;52.254;12.988;2022-11-15T15:31:59;13.30;;;10.73;;
5823;SDS011;2938;52.254;12.988;2022-11-15T15:34:24;19.35;;;11.43;;
5823;SDS011;2938;52.254;12.988;2022-11-15T15:37:05;15.50;;;11.10;;
5823;SDS011;2938;52.254;12.988;2022-11-15T15:39:43;17.40;;;11.25;;
5823;SDS011;2938;52.254;12.988;2022-11-15T15:42:08;15.10;;;12.00;;
5823;SDS011;2938;52.254;12.988;2022-11-15T15:44:34;16.80;;;10.88;;
5823;SDS011;2938;52.254;12.988;2022-11-15T15:46:59;15.15;;;10.43;;
5823;SDS011;2938;52.254;12.988;2022-11-15T15:49:24;16.05;;;11.57;;
5823;SDS011;2938;52.254;12.988;2022-11-15T15:51:50;19.65;;;11.30;;
5823;SDS011;2938;52.254;12.988;2022-11-15T15:54:15;16.15;;;10.02;;
5823;SDS011;2938;52.254;12.988;2022-11-15T15:56:40;16.75;;;10.68;;
5823;SDS011;2938;52.254;12.988;2022-11-15T15:59:06;15.68;;;11.20;;
5823;SDS011;2938;52.254;12.988;2022-11-15T16:01:31;16.95;;;10.82;;
5823;SDS011;2938;52.254;12.988;2022-11-15T16:03:56;13.48;;;10.68;;
5823;SDS011;2938;52.254;12.988;2022-11-15T16:06:38;16.90;;;12.30;;
5823;SDS011;2938;52.254;12.988;2022-11-15T16:09:05;16.85;;;13.50;;
5823;SDS011;2938;52.254;12.988;2022-11-15T16:11:31;22.27;;;12.80;;
5823;SDS011;2938;52.254;12.988;2022-11-15T16:13:56;20.05;;;12.20;;
5823;SDS011;2938;52.254;12.988;2022-11-15T16:16:21;20.60;;;13.15;;